createdAt,value
2018-09-20T00:00:10.060Z,17.20
2018-09-20T00:01:12.809Z,17.08
2018-09-20T00:02:15.801Z,16.99
2018-09-20T00:03:18.569Z,16.89
2018-09-20T00:04:21.446Z,16.82
2018-09-20T00:05:24.593Z,16.66
2018-09-20T00:06:27.490Z,16.72
2018-09-20T00:07:30.360Z,16.76
2018-09-20T00:08:33.232Z,16.85
2018-09-20T00:09:37.548Z,16.98
2018-09-20T00:10:40.275Z,16.96
2018-09-20T00:11:43.332Z,16.99
2018-09-20T00:12:46.169Z,17.02
2018-09-20T00:13:48.967Z,17.05
2018-09-20T00:14:51.746Z,17.06
2018-09-20T00:15:54.460Z,17.15
2018-09-20T00:16:57.195Z,17.17
2018-09-20T00:18:00.280Z,17.18
2018-09-20T00:19:03.184Z,17.13
2018-09-20T00:20:05.896Z,17.14
2018-09-20T00:21:08.670Z,17.19
2018-09-20T00:22:11.728Z,17.23
2018-09-20T00:23:14.466Z,17.19
2018-09-20T00:24:17.490Z,17.14
2018-09-20T00:25:20.201Z,17.10
2018-09-20T00:26:23.828Z,17.09
2018-09-20T00:27:26.573Z,17.05
2018-09-20T00:28:29.350Z,16.98
2018-09-20T00:29:32.117Z,16.95
2018-09-20T00:30:36.497Z,16.96
2018-09-20T00:31:39.244Z,16.99
2018-09-20T00:32:42.054Z,17.02
2018-09-20T00:33:44.798Z,17.07
2018-09-20T00:34:47.550Z,17.02
2018-09-20T00:35:50.251Z,16.95
2018-09-20T00:36:53.438Z,16.92
2018-09-20T00:37:56.189Z,16.90
2018-09-20T00:39:00.502Z,16.77
2018-09-20T00:40:03.290Z,16.61
2018-09-20T00:41:06.050Z,16.51
2018-09-20T00:42:08.803Z,16.39
2018-09-20T00:43:11.877Z,16.40
2018-09-20T00:44:15.394Z,16.46
2018-09-20T00:45:18.117Z,16.39
2018-09-20T00:46:22.651Z,16.41
2018-09-20T00:47:25.377Z,16.39
2018-09-20T00:48:28.787Z,16.46
2018-09-20T00:49:31.862Z,16.56
2018-09-20T00:50:34.634Z,16.50
2018-09-20T00:51:37.378Z,16.38
2018-09-20T00:52:40.241Z,16.35
2018-09-20T00:53:43.653Z,16.37
2018-09-20T00:54:46.397Z,16.33
2018-09-20T00:55:49.414Z,16.39
2018-09-20T00:56:52.818Z,16.44
2018-09-20T00:57:56.511Z,16.44
2018-09-20T00:58:59.257Z,16.44
2018-09-20T01:00:01.958Z,16.40
2018-09-20T01:01:04.682Z,16.31
2018-09-20T01:02:07.722Z,16.19
2018-09-20T01:03:10.507Z,16.19
2018-09-20T01:04:13.220Z,16.15
2018-09-20T01:05:17.875Z,16.05
2018-09-20T01:06:20.707Z,15.97
2018-09-20T01:07:23.431Z,16.00
2018-09-20T01:08:26.478Z,16.02
2018-09-20T01:09:29.279Z,15.95
2018-09-20T01:10:33.660Z,15.91
2018-09-20T01:11:36.483Z,16.02
2018-09-20T01:12:39.232Z,16.07
2018-09-20T01:13:42.246Z,16.03
2018-09-20T01:14:45.321Z,15.98
2018-09-20T01:15:48.035Z,16.00
2018-09-20T01:16:50.764Z,16.00
2018-09-20T01:17:54.729Z,16.04
2018-09-20T01:18:58.550Z,15.91
2018-09-20T01:20:01.276Z,15.86
2018-09-20T01:21:04.439Z,15.90
2018-09-20T01:22:07.223Z,15.89
2018-09-20T01:23:11.590Z,15.78
2018-09-20T01:24:14.381Z,15.77
2018-09-20T01:25:17.195Z,15.83
2018-09-20T01:26:19.983Z,15.95
2018-09-20T01:27:23.776Z,16.06
2018-09-20T01:28:26.515Z,15.98
2018-09-20T01:29:29.257Z,15.85
2018-09-20T01:30:32.009Z,15.90
2018-09-20T01:31:34.786Z,15.86
2018-09-20T01:32:37.559Z,15.71
2018-09-20T01:33:40.928Z,15.73
2018-09-20T01:34:43.679Z,15.79
2018-09-20T01:35:46.451Z,15.75
2018-09-20T01:36:49.539Z,15.68
2018-09-20T01:37:53.380Z,15.65
2018-09-20T01:38:56.110Z,15.73
2018-09-20T01:39:59.290Z,15.75
2018-09-20T01:41:02.058Z,15.84
2018-09-20T01:42:04.859Z,15.80
2018-09-20T01:43:07.640Z,15.77
2018-09-20T01:44:10.387Z,15.73
2018-09-20T01:45:13.124Z,15.68
2018-09-20T01:46:16.337Z,15.64
2018-09-20T01:47:19.702Z,15.68
2018-09-20T01:48:22.447Z,15.77
2018-09-20T01:49:25.219Z,15.87
2018-09-20T01:50:29.021Z,15.99
2018-09-20T01:51:32.723Z,15.97
2018-09-20T01:52:35.806Z,15.91
2018-09-20T01:53:38.538Z,15.86
2018-09-20T01:54:41.311Z,15.83
2018-09-20T01:55:44.047Z,15.80
2018-09-20T01:56:47.399Z,15.69
2018-09-20T01:57:50.112Z,15.56
2018-09-20T01:58:53.161Z,15.48
2018-09-20T01:59:55.907Z,15.44
2018-09-20T02:00:58.622Z,15.50
2018-09-20T02:02:01.763Z,15.60
2018-09-20T02:03:04.534Z,15.70
2018-09-20T02:04:07.322Z,15.70
2018-09-20T02:05:10.496Z,15.62
2018-09-20T02:06:13.672Z,15.52
2018-09-20T02:07:16.439Z,15.36
2018-09-20T02:08:20.021Z,15.33
2018-09-20T02:09:22.742Z,15.27
2018-09-20T02:10:25.468Z,15.22
2018-09-20T02:11:28.554Z,15.28
2018-09-20T02:12:31.287Z,15.26
2018-09-20T02:13:34.067Z,15.25
2018-09-20T02:14:36.795Z,15.21
2018-09-20T02:15:39.546Z,15.20
2018-09-20T02:16:42.319Z,15.11
2018-09-20T02:17:45.569Z,15.07
2018-09-20T02:18:48.365Z,15.04
2018-09-20T02:19:51.101Z,14.98
2018-09-20T02:20:53.874Z,14.85
2018-09-20T02:21:56.651Z,14.86
2018-09-20T02:22:59.440Z,14.96
2018-09-20T02:24:02.490Z,15.10
2018-09-20T02:25:05.233Z,15.18
2018-09-20T02:26:07.976Z,15.29
2018-09-20T02:27:10.710Z,15.34
2018-09-20T02:28:13.469Z,15.39
2018-09-20T02:29:16.283Z,15.38
2018-09-20T02:30:19.327Z,15.30
2018-09-20T02:31:22.147Z,15.32
2018-09-20T02:32:24.957Z,15.35
2018-09-20T02:33:27.727Z,15.33
2018-09-20T02:34:30.504Z,15.28
2018-09-20T02:35:33.272Z,15.21
2018-09-20T02:36:36.305Z,15.10
2018-09-20T02:37:43.224Z,15.05
2018-09-20T02:38:46.075Z,15.06
2018-09-20T02:39:48.841Z,15.20
2018-09-20T02:40:51.599Z,15.28
2018-09-20T02:41:54.356Z,15.33
2018-09-20T02:43:00.786Z,15.41
2018-09-20T02:44:03.708Z,15.46
2018-09-20T02:45:06.546Z,15.36
2018-09-20T02:46:09.463Z,15.40
2018-09-20T02:47:12.209Z,15.38
2018-09-20T02:48:15.612Z,15.38
2018-09-20T02:49:18.708Z,15.14
2018-09-20T02:50:21.479Z,15.06
2018-09-20T02:51:24.265Z,15.07
2018-09-20T02:52:27.025Z,15.07
2018-09-20T02:53:29.847Z,14.91
2018-09-20T02:54:33.151Z,14.86
2018-09-20T02:55:37.430Z,14.81
2018-09-20T02:56:41.178Z,14.87
2018-09-20T02:57:48.243Z,14.97
2018-09-20T02:58:52.277Z,15.03
2018-09-20T02:59:55.625Z,15.05
2018-09-20T03:00:59.220Z,15.05
2018-09-20T03:02:03.407Z,15.05
2018-09-20T03:03:06.523Z,15.03
2018-09-20T03:04:09.526Z,15.10
2018-09-20T03:05:13.154Z,15.15
2018-09-20T03:06:16.772Z,15.04
2018-09-20T03:07:19.756Z,15.00
2018-09-20T03:08:24.386Z,14.98
2018-09-20T03:09:27.837Z,14.86
2018-09-20T03:10:31.082Z,14.81
2018-09-20T03:11:34.106Z,14.84
2018-09-20T03:12:37.595Z,14.90
2018-09-20T03:13:41.096Z,14.85
2018-09-20T03:14:45.625Z,14.92
2018-09-20T03:15:49.649Z,14.93
2018-09-20T03:16:53.278Z,14.90
2018-09-20T03:17:56.031Z,14.90
2018-09-20T03:18:58.800Z,14.91
2018-09-20T03:20:01.620Z,14.49
2018-09-20T03:21:04.445Z,14.36
2018-09-20T03:22:07.204Z,14.31
2018-09-20T03:23:09.972Z,14.24
2018-09-20T03:24:12.739Z,14.25
2018-09-20T03:25:15.665Z,14.29
2018-09-20T03:26:18.813Z,14.30
2018-09-20T03:27:21.623Z,14.33
2018-09-20T03:28:24.404Z,14.31
2018-09-20T03:29:27.167Z,14.36
2018-09-20T03:30:30.415Z,14.37
2018-09-20T03:31:33.211Z,14.40
2018-09-20T03:32:36.481Z,14.44
2018-09-20T03:33:41.015Z,14.45
2018-09-20T03:34:44.037Z,14.40
2018-09-20T03:35:47.955Z,14.46
2018-09-20T03:36:53.899Z,14.58
2018-09-20T03:37:57.108Z,14.65
2018-09-20T03:39:01.897Z,14.73
2018-09-20T03:40:08.687Z,14.75
2018-09-20T03:41:14.574Z,14.62
2018-09-20T03:42:17.369Z,14.61
2018-09-20T03:43:20.155Z,14.63
2018-09-20T03:44:22.903Z,14.66
2018-09-20T03:45:26.022Z,14.76
2018-09-20T03:46:28.820Z,14.72
2018-09-20T03:47:31.575Z,14.72
2018-09-20T03:48:34.538Z,14.79
2018-09-20T03:49:37.293Z,14.79
2018-09-20T03:50:40.192Z,14.79
2018-09-20T03:51:43.444Z,14.83
2018-09-20T03:52:47.958Z,14.69
2018-09-20T03:53:52.987Z,14.63
2018-09-20T03:54:55.737Z,14.51
2018-09-20T03:55:58.606Z,14.48
2018-09-20T03:57:01.337Z,14.52
2018-09-20T03:58:04.575Z,14.46
2018-09-20T03:59:07.315Z,14.35
2018-09-20T04:00:10.088Z,14.27
2018-09-20T04:01:12.937Z,14.17
2018-09-20T04:02:15.728Z,14.23
2018-09-20T04:03:18.467Z,14.20
2018-09-20T04:04:21.611Z,14.16
2018-09-20T04:05:25.112Z,14.09
2018-09-20T04:06:29.396Z,14.13
2018-09-20T04:07:32.299Z,14.20
2018-09-20T04:08:35.118Z,14.31
2018-09-20T04:09:37.964Z,14.33
2018-09-20T04:10:41.231Z,14.30
2018-09-20T04:11:44.019Z,14.31
2018-09-20T04:12:46.877Z,14.23
2018-09-20T04:13:49.655Z,14.19
2018-09-20T04:14:52.438Z,14.16
2018-09-20T04:15:55.835Z,14.12
2018-09-20T04:16:58.959Z,14.05
2018-09-20T04:18:01.778Z,13.97
2018-09-20T04:19:04.567Z,13.93
2018-09-20T04:20:07.392Z,13.83
2018-09-20T04:21:10.979Z,13.65
2018-09-20T04:22:14.463Z,13.59
2018-09-20T04:23:17.771Z,13.53
2018-09-20T04:24:20.549Z,13.45
2018-09-20T04:25:23.305Z,13.44
2018-09-20T04:26:27.701Z,13.49
2018-09-20T04:27:30.438Z,13.59
2018-09-20T04:28:34.525Z,13.63
2018-09-20T04:29:37.727Z,13.68
2018-09-20T04:30:40.708Z,13.72
2018-09-20T04:31:43.833Z,13.84
2018-09-20T04:32:46.660Z,13.93
2018-09-20T04:33:49.438Z,13.89
2018-09-20T04:34:52.313Z,13.79
2018-09-20T04:35:55.410Z,13.68
2018-09-20T04:36:59.040Z,13.72
2018-09-20T04:38:01.799Z,13.74
2018-09-20T04:39:05.100Z,13.76
2018-09-20T04:40:07.847Z,13.69
2018-09-20T04:41:10.589Z,13.68
2018-09-20T04:42:13.679Z,13.74
2018-09-20T04:43:16.461Z,13.68
2018-09-20T04:44:19.344Z,13.63
2018-09-20T04:45:22.076Z,13.56
2018-09-20T04:46:25.476Z,13.52
2018-09-20T04:47:28.242Z,13.53
2018-09-20T04:48:32.433Z,13.68
2018-09-20T04:49:35.237Z,13.84
2018-09-20T04:50:38.246Z,13.94
2018-09-20T04:51:40.981Z,13.93
2018-09-20T04:52:43.881Z,13.96
2018-09-20T04:53:46.643Z,13.96
2018-09-20T04:54:49.745Z,13.95
2018-09-20T04:55:53.047Z,13.95
2018-09-20T04:56:55.781Z,13.97
2018-09-20T04:57:58.558Z,13.98
2018-09-20T04:59:02.974Z,14.01
2018-09-20T05:00:05.845Z,14.01
2018-09-20T05:01:09.121Z,14.04
2018-09-20T05:02:11.904Z,14.09
2018-09-20T05:03:15.617Z,14.13
2018-09-20T05:04:18.386Z,14.09
2018-09-20T05:05:22.140Z,13.95
2018-09-20T05:06:25.800Z,13.84
2018-09-20T05:07:29.619Z,13.77
2018-09-20T05:08:33.062Z,13.81
2018-09-20T05:09:37.832Z,13.92
2018-09-20T05:10:40.736Z,14.05
2018-09-20T05:11:44.151Z,14.12
2018-09-20T05:12:47.047Z,14.15
2018-09-20T05:13:50.329Z,14.18
2018-09-20T05:14:53.151Z,14.20
2018-09-20T05:15:56.886Z,14.28
2018-09-20T05:16:59.820Z,14.30
2018-09-20T05:18:02.618Z,14.31
2018-09-20T05:19:07.002Z,14.24
2018-09-20T05:20:10.365Z,14.21
2018-09-20T05:21:13.364Z,14.13
2018-09-20T05:22:17.375Z,13.99
2018-09-20T05:23:20.288Z,14.01
2018-09-20T05:24:26.296Z,14.07
2018-09-20T05:25:29.141Z,14.07
2018-09-20T05:26:33.201Z,13.99
2018-09-20T05:27:36.041Z,14.01
2018-09-20T05:28:38.835Z,14.11
2018-09-20T05:29:43.819Z,14.11
2018-09-20T05:30:47.520Z,14.04
2018-09-20T05:31:55.076Z,13.94
2018-09-20T05:45:29.883Z,14.00
2018-09-20T05:46:32.972Z,14.02
2018-09-20T05:47:35.858Z,14.01
2018-09-20T05:48:38.812Z,14.03
2018-09-20T05:49:41.554Z,14.09
2018-09-20T05:50:44.990Z,14.37
2018-09-20T05:51:47.764Z,14.49
2018-09-20T05:52:50.596Z,14.49
2018-09-20T05:53:53.363Z,14.46
2018-09-20T05:54:56.187Z,14.33
2018-09-20T05:55:58.943Z,14.37
2018-09-20T05:57:02.062Z,14.50
2018-09-20T05:58:04.904Z,14.71
2018-09-20T05:59:07.732Z,14.89
2018-09-20T06:00:10.608Z,14.94
2018-09-20T06:01:13.342Z,14.92
2018-09-20T06:02:16.211Z,14.97
2018-09-20T06:03:19.328Z,15.08
2018-09-20T06:04:22.193Z,15.14
2018-09-20T06:05:24.935Z,15.25
2018-09-20T06:06:27.698Z,15.32
2018-09-20T06:07:30.461Z,15.19
2018-09-20T06:08:33.245Z,15.16
2018-09-20T06:09:36.338Z,15.27
2018-09-20T06:10:39.113Z,15.18
2018-09-20T06:11:41.901Z,15.10
2018-09-20T06:12:44.658Z,15.03
2018-09-20T06:13:47.453Z,15.02
2018-09-20T06:14:50.219Z,15.01
2018-09-20T06:15:53.381Z,14.70
2018-09-20T06:16:56.143Z,14.58
2018-09-20T06:17:58.902Z,14.51
2018-09-20T06:19:02.073Z,14.51
2018-09-20T06:20:04.954Z,14.51
2018-09-20T06:21:08.061Z,14.54
2018-09-20T06:22:13.099Z,14.49
2018-09-20T06:23:16.067Z,14.42
2018-09-20T06:24:18.948Z,14.39
2018-09-20T06:25:22.474Z,14.35
2018-09-20T06:26:25.250Z,14.48
2018-09-20T06:27:28.029Z,14.80
2018-09-20T06:28:32.280Z,15.13
2018-09-20T06:29:35.083Z,15.45
2018-09-20T06:30:37.874Z,15.67
2018-09-20T06:31:41.711Z,15.59
2018-09-20T06:32:44.601Z,15.60
2018-09-20T06:33:47.375Z,15.50
2018-09-20T06:34:50.514Z,15.34
2018-09-20T06:35:53.256Z,15.31
2018-09-20T06:36:56.131Z,15.42
2018-09-20T06:37:58.892Z,15.58
2018-09-20T06:39:06.256Z,15.76
2018-09-20T06:40:09.011Z,16.14
2018-09-20T06:41:12.414Z,16.23
2018-09-20T06:42:15.164Z,16.60
2018-09-20T06:43:18.294Z,16.61
2018-09-20T06:44:22.630Z,16.63
2018-09-20T06:45:25.392Z,16.63
2018-09-20T06:46:28.260Z,16.81
2018-09-20T06:47:31.545Z,17.02
2018-09-20T06:48:35.076Z,16.98
2018-09-20T06:49:37.877Z,17.13
2018-09-20T06:50:40.650Z,17.57
2018-09-20T06:51:43.464Z,17.89
2018-09-20T06:52:46.228Z,17.83
2018-09-20T06:53:49.271Z,18.03
2018-09-20T06:54:52.060Z,18.03
2018-09-20T06:55:56.046Z,18.10
2018-09-20T06:56:58.827Z,18.27
2018-09-20T06:58:01.881Z,18.32
2018-09-20T06:59:05.233Z,18.50
2018-09-20T07:00:08.464Z,18.89
2018-09-20T07:01:11.193Z,19.05
2018-09-20T07:02:14.302Z,19.19
2018-09-20T07:03:17.250Z,19.36
2018-09-20T07:04:20.072Z,19.48
2018-09-20T07:05:22.949Z,19.71
2018-09-20T07:06:26.044Z,19.41
2018-09-20T07:07:29.242Z,19.34
2018-09-20T07:08:32.102Z,19.38
2018-09-20T07:09:35.973Z,19.68
2018-09-20T07:10:39.790Z,19.78
2018-09-20T07:11:44.706Z,19.77
2018-09-20T07:12:48.581Z,19.90
2018-09-20T07:13:53.403Z,20.01
2018-09-20T07:14:56.851Z,20.23
2018-09-20T07:16:01.389Z,19.95
2018-09-20T07:17:04.784Z,20.22
2018-09-20T07:18:07.803Z,20.42
2018-09-20T07:19:12.630Z,20.70
2018-09-20T07:20:18.310Z,20.99
2018-09-20T07:21:21.295Z,21.01
2018-09-20T07:22:25.339Z,20.64
2018-09-20T07:23:28.432Z,19.91
2018-09-20T07:24:31.333Z,19.93
2018-09-20T07:25:35.409Z,20.16
2018-09-20T07:26:38.711Z,20.16
2018-09-20T07:27:43.087Z,20.09
2018-09-20T07:28:46.066Z,20.15
2018-09-20T07:29:49.225Z,20.41
2018-09-20T07:30:54.243Z,20.67
2018-09-20T07:31:57.604Z,21.05
2018-09-20T07:33:00.553Z,21.12
2018-09-20T07:34:03.311Z,20.78
2018-09-20T07:35:06.896Z,20.66
2018-09-20T07:36:09.700Z,20.72
2018-09-20T07:37:12.552Z,21.24
2018-09-20T07:38:17.395Z,21.59
2018-09-20T07:39:20.208Z,21.53
2018-09-20T07:40:23.079Z,21.46
2018-09-20T07:41:26.822Z,21.26
2018-09-20T07:42:29.780Z,20.85
2018-09-20T07:43:32.540Z,20.91
2018-09-20T07:44:35.770Z,21.21
2018-09-20T07:45:38.529Z,21.54
2018-09-20T07:46:41.325Z,21.97
2018-09-20T07:47:44.132Z,22.29
2018-09-20T07:48:47.843Z,21.68
2018-09-20T07:49:51.160Z,21.43
2018-09-20T07:50:57.987Z,21.96
2018-09-20T07:52:01.403Z,22.53
2018-09-20T07:53:04.354Z,22.34
2018-09-20T07:54:07.160Z,22.35
2018-09-20T07:55:10.903Z,22.46
2018-09-20T07:56:13.753Z,22.66
2018-09-20T07:57:18.370Z,22.96
2018-09-20T07:58:21.289Z,22.91
2018-09-20T07:59:25.232Z,22.85
2018-09-20T08:00:28.169Z,22.76
2018-09-20T08:01:31.251Z,23.03
2018-09-20T08:02:34.328Z,22.73
2018-09-20T08:03:38.276Z,22.90
2018-09-20T08:04:41.182Z,22.88
2018-09-20T08:05:44.261Z,23.07
2018-09-20T08:06:47.235Z,22.92
2018-09-20T08:07:50.083Z,22.94
2018-09-20T08:08:52.878Z,22.96
2018-09-20T08:09:56.137Z,23.26
2018-09-20T08:10:58.994Z,23.74
2018-09-20T08:12:01.948Z,23.53
2018-09-20T08:13:04.876Z,23.38
2018-09-20T08:14:07.932Z,23.88
2018-09-20T08:15:11.684Z,24.23
2018-09-20T08:16:15.284Z,24.48
2018-09-20T08:17:18.067Z,24.46
2018-09-20T08:18:21.439Z,24.13
2018-09-20T08:19:25.557Z,24.33
2018-09-20T08:20:28.420Z,24.05
2018-09-20T08:21:33.499Z,24.63
2018-09-20T08:22:36.706Z,24.59
2018-09-20T08:23:39.571Z,25.40
2018-09-20T08:24:42.445Z,25.38
2018-09-20T08:25:47.039Z,24.93
2018-09-20T08:26:50.303Z,24.42
2018-09-20T08:27:53.380Z,24.27
2018-09-20T08:28:56.702Z,24.64
2018-09-20T08:30:01.350Z,25.01
2018-09-20T08:31:04.153Z,25.44
2018-09-20T08:32:07.754Z,25.15
2018-09-20T08:33:10.568Z,24.43
2018-09-20T08:34:13.366Z,24.82
2018-09-20T08:35:16.517Z,25.52
2018-09-20T08:36:20.902Z,25.29
2018-09-20T08:37:23.797Z,24.84
2018-09-20T08:38:26.772Z,24.97
2018-09-20T08:39:29.832Z,24.58
2018-09-20T08:40:33.836Z,24.88
2018-09-20T08:41:37.045Z,24.90
2018-09-20T08:42:39.787Z,24.52
2018-09-20T08:43:42.594Z,23.97
2018-09-20T08:44:45.447Z,23.78
2018-09-20T08:45:48.332Z,23.42
2018-09-20T08:46:51.216Z,24.02
2018-09-20T08:47:54.549Z,23.89
2018-09-20T08:49:01.772Z,24.52
2018-09-20T08:50:04.563Z,24.72
2018-09-20T08:51:07.402Z,24.50
2018-09-20T08:52:10.242Z,24.80
2018-09-20T08:53:13.040Z,25.23
2018-09-20T08:54:16.543Z,24.66
2018-09-20T08:55:19.530Z,25.13
2018-09-20T08:56:22.614Z,25.69
2018-09-20T08:57:25.426Z,26.56
2018-09-20T08:58:32.553Z,26.93
2018-09-20T08:59:35.687Z,26.50
2018-09-20T09:00:39.424Z,26.05
2018-09-20T09:01:42.893Z,25.39
2018-09-20T09:02:46.544Z,23.47
2018-09-20T09:03:51.420Z,23.54
2018-09-20T09:04:56.440Z,22.61
2018-09-20T09:05:59.973Z,21.74
2018-09-20T09:08:07.554Z,21.87
2018-09-20T09:09:12.663Z,21.79
2018-09-20T09:10:15.697Z,22.24
2018-09-20T09:11:19.172Z,22.22
2018-09-20T09:12:23.274Z,23.47
2018-09-20T09:13:26.095Z,23.36
2018-09-20T09:14:28.884Z,22.82
2018-09-20T09:15:31.670Z,22.33
2018-09-20T09:16:34.432Z,22.69
2018-09-20T09:17:38.671Z,22.24
2018-09-20T09:18:42.043Z,22.86
2018-09-20T09:19:44.822Z,23.13
2018-09-20T09:20:47.694Z,24.02
2018-09-20T09:21:51.307Z,24.49
2018-09-20T09:22:54.343Z,23.66
2018-09-20T09:23:58.064Z,23.72
2018-09-20T09:25:01.244Z,24.43
2018-09-20T09:26:05.044Z,24.42
2018-09-20T09:27:08.183Z,23.20
2018-09-20T09:28:13.347Z,22.78
2018-09-20T09:29:17.263Z,23.25
2018-09-20T09:30:20.722Z,23.19
2018-09-20T09:31:25.669Z,22.59
2018-09-20T09:32:28.590Z,22.04
2018-09-20T09:33:31.329Z,22.29
2018-09-20T09:34:34.698Z,22.80
2018-09-20T09:35:37.499Z,23.31
2018-09-20T09:36:40.409Z,23.04
2018-09-20T09:37:43.971Z,22.42
2018-09-20T09:38:46.838Z,22.88
2018-09-20T09:39:50.347Z,22.53
2018-09-20T09:40:53.166Z,22.52
2018-09-20T09:41:56.427Z,23.12
2018-09-20T09:43:01.385Z,23.22
2018-09-20T09:44:04.503Z,23.17
2018-09-20T09:45:07.286Z,22.39
2018-09-20T09:46:12.546Z,22.89
2018-09-20T09:47:15.351Z,23.54
2018-09-20T09:48:18.890Z,23.09
2018-09-20T09:49:21.664Z,22.60
2018-09-20T09:50:24.844Z,23.10
2018-09-20T09:51:28.350Z,23.92
2018-09-20T09:52:31.151Z,23.33
2018-09-20T09:53:33.937Z,24.10
2018-09-20T09:54:38.298Z,24.02
2018-09-20T09:55:41.103Z,23.40
2018-09-20T09:56:44.296Z,22.57
2018-09-20T09:57:52.694Z,22.71
2018-09-20T09:58:55.483Z,22.67
2018-09-20T09:59:58.311Z,23.29
2018-09-20T10:01:01.148Z,23.72
2018-09-20T10:02:05.455Z,23.77
2018-09-20T10:03:09.428Z,23.09
2018-09-20T10:04:12.553Z,23.65
2018-09-20T10:05:17.083Z,23.68
2018-09-20T10:06:19.958Z,23.79
2018-09-20T10:07:22.746Z,23.69
2018-09-20T10:08:26.289Z,24.58
2018-09-20T10:09:29.446Z,24.45
2018-09-20T10:10:33.280Z,24.66
2018-09-20T10:11:37.043Z,24.80
2018-09-20T10:12:40.956Z,24.63
2018-09-20T10:13:44.123Z,23.40
2018-09-20T10:14:47.669Z,22.75
2018-09-20T10:15:51.265Z,22.17
2018-09-20T10:16:54.127Z,21.89
2018-09-20T10:17:57.536Z,21.80
2018-09-20T10:19:00.325Z,22.13
2018-09-20T10:20:03.212Z,22.18
2018-09-20T10:21:06.768Z,21.64
2018-09-20T10:22:09.627Z,22.01
2018-09-20T10:23:12.406Z,22.25
2018-09-20T10:24:15.627Z,21.95
2018-09-20T10:25:19.236Z,22.21
2018-09-20T10:26:23.464Z,23.05
2018-09-20T10:27:26.694Z,23.38
2018-09-20T10:28:30.016Z,23.10
2018-09-20T10:29:32.847Z,22.99
2018-09-20T10:30:37.359Z,23.03
2018-09-20T10:31:40.951Z,23.15
2018-09-20T10:45:07.565Z,24.22
2018-09-20T10:46:11.123Z,24.57
2018-09-20T10:47:15.157Z,24.76
2018-09-20T10:48:17.980Z,25.45
2018-09-20T10:49:21.487Z,24.54
2018-09-20T10:50:24.692Z,24.16
2018-09-20T10:51:27.477Z,23.45
2018-09-20T10:52:30.405Z,23.24
2018-09-20T10:53:33.214Z,23.76
2018-09-20T10:54:36.019Z,23.95
2018-09-20T10:55:38.854Z,23.73
2018-09-20T10:56:41.958Z,23.96
2018-09-20T10:57:44.768Z,24.75
2018-09-20T10:58:47.731Z,24.54
2018-09-20T10:59:50.735Z,24.32
2018-09-20T11:00:53.546Z,25.53
2018-09-20T11:01:56.453Z,25.57
2018-09-20T11:02:59.735Z,25.66
2018-09-20T11:04:03.156Z,25.54
2018-09-20T11:05:07.394Z,25.75
2018-09-20T11:06:11.871Z,25.99
2018-09-20T11:07:14.858Z,25.76
2018-09-20T11:08:17.624Z,24.79
2018-09-20T11:09:22.124Z,24.36
2018-09-20T11:10:24.876Z,23.89
2018-09-20T11:11:27.623Z,24.13
2018-09-20T11:12:30.467Z,24.58
2018-09-20T11:13:33.227Z,25.10
2018-09-20T11:14:36.040Z,25.53
2018-09-20T11:15:38.860Z,25.38
2018-09-20T11:16:42.225Z,25.55
2018-09-20T11:17:45.078Z,25.90
2018-09-20T11:18:48.455Z,25.34
2018-09-20T11:19:51.663Z,25.09
2018-09-20T11:20:54.762Z,24.78
2018-09-20T11:21:57.500Z,24.41
2018-09-20T11:23:00.289Z,24.26
2018-09-20T11:24:03.175Z,24.27
2018-09-20T11:25:05.959Z,24.33
2018-09-20T11:26:08.694Z,24.62
2018-09-20T11:27:13.465Z,24.96
2018-09-20T11:28:16.371Z,24.68
2018-09-20T11:29:20.267Z,25.10
2018-09-20T11:30:23.040Z,25.09
2018-09-20T11:31:25.787Z,24.76
2018-09-20T11:32:29.038Z,24.56
2018-09-20T11:33:31.888Z,24.30
2018-09-20T11:34:34.645Z,23.61
2018-09-20T11:35:40.713Z,23.73
2018-09-20T11:36:44.506Z,23.18
2018-09-20T11:37:47.326Z,23.99
2018-09-20T11:38:51.882Z,24.36
2018-09-20T11:39:55.165Z,24.72
2018-09-20T11:40:58.721Z,24.97
2018-09-20T11:42:01.566Z,24.89
2018-09-20T11:43:04.408Z,24.94
2018-09-20T11:44:08.285Z,24.79
2018-09-20T11:45:12.562Z,25.02
2018-09-20T11:46:16.248Z,25.03
2018-09-20T11:47:20.347Z,25.16
2018-09-20T11:48:23.491Z,24.99
2018-09-20T11:49:26.602Z,24.79
2018-09-20T11:50:29.567Z,24.78
2018-09-20T11:51:32.838Z,24.77
2018-09-20T11:52:36.354Z,24.87
2018-09-20T11:53:39.269Z,24.57
2018-09-20T11:54:43.404Z,24.78
2018-09-20T11:55:46.534Z,24.73
2018-09-20T11:56:50.390Z,24.37
2018-09-20T11:57:54.598Z,24.64
2018-09-20T11:58:58.324Z,24.99
2018-09-20T12:00:01.461Z,24.97
2018-09-20T12:01:07.942Z,25.08
2018-09-20T12:02:10.912Z,25.36
2018-09-20T12:03:13.785Z,25.06
2018-09-20T12:04:17.079Z,24.85
2018-09-20T12:05:20.140Z,24.47
2018-09-20T12:06:23.020Z,24.55
2018-09-20T12:07:25.855Z,24.92
2018-09-20T12:08:34.063Z,24.39
2018-09-20T12:09:39.779Z,24.46
2018-09-20T12:10:43.084Z,24.60
2018-09-20T12:11:45.981Z,24.84
2018-09-20T12:12:52.162Z,25.23
2018-09-20T12:13:56.351Z,24.90
2018-09-20T12:15:00.415Z,24.98
2018-09-20T12:17:14.642Z,24.65
2018-09-20T12:18:18.596Z,24.41
2018-09-20T12:19:22.377Z,24.65
2018-09-20T12:20:25.965Z,24.95
2018-09-20T12:21:29.501Z,24.44
2018-09-20T12:22:33.203Z,24.68
2018-09-20T12:23:36.149Z,25.37
2018-09-20T12:24:39.605Z,25.55
2018-09-20T12:25:43.831Z,25.43
2018-09-20T12:26:47.599Z,25.27
2018-09-20T12:27:51.730Z,25.60
2018-09-20T12:28:57.001Z,25.71
2018-09-20T12:30:01.312Z,25.60
2018-09-20T12:31:05.721Z,25.07
2018-09-20T12:32:08.837Z,24.57
2018-09-20T12:33:14.035Z,24.36
2018-09-20T12:34:17.552Z,24.25
2018-09-20T12:35:25.485Z,24.01
2018-09-20T12:36:30.286Z,24.40
2018-09-20T12:37:38.312Z,25.37
2018-09-20T12:38:42.008Z,25.97
2018-09-20T12:39:48.355Z,25.87
2018-09-20T12:40:53.537Z,26.46
2018-09-20T12:42:00.649Z,26.24
2018-09-20T12:43:07.332Z,26.02
2018-09-20T12:44:25.471Z,25.40
2018-09-20T12:45:28.871Z,25.09
2018-09-20T12:46:33.259Z,24.65
2018-09-20T12:47:37.489Z,24.48
2018-09-20T12:48:42.818Z,24.95
2018-09-20T12:50:56.254Z,25.52
2018-09-20T12:52:03.162Z,25.38
2018-09-20T12:53:07.828Z,24.78
2018-09-20T12:54:11.805Z,25.03
2018-09-20T12:55:15.840Z,25.11
2018-09-20T12:56:19.324Z,25.01
2018-09-20T12:57:22.240Z,24.83
2018-09-20T12:58:30.073Z,24.87
2018-09-20T12:59:40.233Z,24.52
2018-09-20T13:00:43.340Z,24.90
2018-09-20T13:01:49.216Z,25.02
2018-09-20T13:02:52.539Z,25.09
2018-09-20T13:03:56.214Z,25.98
2018-09-20T13:04:59.398Z,26.22
2018-09-20T13:06:03.344Z,25.98
2018-09-20T13:07:08.040Z,25.10
2018-09-20T13:08:14.826Z,25.33
2018-09-20T13:09:18.794Z,26.26
2018-09-20T13:10:31.790Z,26.22
2018-09-20T13:11:34.757Z,25.81
2018-09-20T13:12:38.472Z,25.66
2018-09-20T13:13:42.501Z,25.60
2018-09-20T13:14:45.390Z,25.63
2018-09-20T13:15:49.316Z,25.80
2018-09-20T13:16:52.789Z,25.83
2018-09-20T13:17:56.412Z,25.79
2018-09-20T13:18:59.402Z,25.72
2018-09-20T13:20:02.528Z,26.14
2018-09-20T13:21:09.160Z,26.62
2018-09-20T13:22:11.928Z,26.30
2018-09-20T13:23:14.707Z,26.47
2018-09-20T13:24:18.120Z,26.89
2018-09-20T13:25:20.985Z,27.02
2018-09-20T13:26:24.369Z,27.21
2018-09-20T13:27:28.379Z,26.94
2018-09-20T13:28:33.739Z,26.28
2018-09-20T13:29:39.282Z,26.02
2018-09-20T13:30:42.855Z,25.85
2018-09-20T13:31:46.778Z,26.18
2018-09-20T13:32:50.870Z,26.06
2018-09-20T13:33:53.703Z,26.07
2018-09-20T13:34:56.487Z,25.99
2018-09-20T13:35:59.232Z,26.22
2018-09-20T13:37:03.584Z,26.26
2018-09-20T13:38:09.290Z,26.52
2018-09-20T13:39:13.525Z,26.45
2018-09-20T13:40:16.316Z,26.76
2018-09-20T13:41:19.842Z,26.96
2018-09-20T13:42:22.678Z,26.56
2018-09-20T13:43:28.246Z,26.30
2018-09-20T13:44:31.090Z,26.67
2018-09-20T13:45:35.800Z,27.19
2018-09-20T13:46:38.653Z,26.77
2018-09-20T13:47:41.790Z,26.09
2018-09-20T13:48:44.550Z,25.73
2018-09-20T13:49:47.301Z,25.83
2018-09-20T13:50:50.151Z,26.27
2018-09-20T13:51:53.264Z,26.51
2018-09-20T13:52:56.100Z,25.60
2018-09-20T13:53:58.955Z,25.94
2018-09-20T13:55:01.775Z,25.48
2018-09-20T13:56:04.536Z,25.89
2018-09-20T13:57:07.298Z,26.26
2018-09-20T13:58:12.273Z,26.33
2018-09-20T13:59:15.725Z,26.49
2018-09-20T14:00:19.843Z,26.61
2018-09-20T14:01:22.888Z,26.52
2018-09-20T14:02:25.690Z,26.46
2018-09-20T14:03:28.445Z,26.64
2018-09-20T14:04:31.569Z,26.29